createdAt,value
2019-02-19T00:00:22.455Z,6.60
2019-02-19T00:02:50.935Z,5.57
2019-02-19T00:05:18.614Z,5.20
2019-02-19T00:07:46.175Z,5.63
2019-02-19T00:10:13.739Z,4.87
2019-02-19T00:12:41.295Z,5.07
2019-02-19T00:15:08.856Z,5.13
2019-02-19T00:17:37.351Z,4.77
2019-02-19T00:20:04.931Z,12.10
2019-02-19T00:22:32.495Z,7.10
2019-02-19T00:25:00.054Z,5.63
2019-02-19T00:27:27.656Z,4.50
2019-02-19T00:29:55.222Z,6.13
2019-02-19T00:32:22.791Z,5.40
2019-02-19T00:34:50.352Z,5.27
2019-02-19T00:37:19.836Z,5.07
2019-02-19T00:39:47.392Z,5.87
2019-02-19T00:42:14.946Z,5.13
2019-02-19T00:44:43.271Z,4.97
2019-02-19T00:47:10.830Z,6.07
2019-02-19T00:49:38.391Z,4.80
2019-02-19T00:52:05.953Z,4.80
2019-02-19T00:54:33.511Z,5.07
2019-02-19T00:57:01.067Z,4.70
2019-02-19T00:59:30.356Z,6.23
2019-02-19T01:01:57.924Z,4.53
2019-02-19T01:04:25.480Z,3.83
2019-02-19T01:06:53.049Z,7.80
2019-02-19T01:09:21.366Z,4.47
2019-02-19T01:11:48.930Z,5.20
2019-02-19T01:14:16.490Z,4.23
2019-02-19T01:16:44.059Z,4.13
2019-02-19T01:19:11.614Z,4.37
2019-02-19T01:21:39.171Z,4.30
2019-02-19T01:24:06.722Z,4.90
2019-02-19T01:26:34.289Z,4.27
2019-02-19T01:29:01.845Z,4.67
2019-02-19T01:31:29.403Z,4.60
2019-02-19T01:33:56.955Z,4.90
2019-02-19T01:36:24.511Z,5.17
2019-02-19T01:38:52.062Z,5.10
2019-02-19T01:41:19.617Z,4.73
2019-02-19T01:43:47.171Z,4.77
2019-02-19T01:46:14.726Z,5.50
2019-02-19T01:48:42.348Z,4.47
2019-02-19T01:51:09.903Z,4.43
2019-02-19T01:53:37.464Z,4.70
2019-02-19T01:56:05.028Z,4.93
2019-02-19T01:58:34.531Z,5.67
2019-02-19T02:01:02.097Z,4.83
2019-02-19T02:03:31.583Z,5.00
2019-02-19T02:05:59.150Z,5.60
2019-02-19T02:08:26.709Z,5.70
2019-02-19T02:10:54.267Z,4.87
2019-02-19T02:13:21.823Z,5.90
2019-02-19T02:15:49.383Z,5.23
2019-02-19T02:18:16.943Z,6.03
2019-02-19T02:20:44.503Z,5.20
2019-02-19T02:23:12.067Z,4.87
2019-02-19T02:25:39.629Z,4.60
2019-02-19T02:28:07.191Z,5.20
2019-02-19T02:30:36.663Z,6.03
2019-02-19T02:33:04.229Z,13.87
2019-02-19T02:35:32.700Z,5.90
2019-02-19T02:38:01.178Z,4.70
2019-02-19T02:40:28.744Z,5.33
2019-02-19T02:42:58.239Z,5.70
2019-02-19T02:45:25.817Z,6.07
2019-02-19T02:47:53.397Z,5.30
2019-02-19T02:50:20.974Z,5.27
2019-02-19T02:52:49.304Z,4.73
2019-02-19T02:55:16.869Z,5.17
2019-02-19T02:57:44.433Z,5.30
2019-02-19T03:00:12.631Z,6.45
2019-02-19T03:02:40.201Z,7.03
2019-02-19T03:05:07.770Z,5.80
2019-02-19T03:07:36.095Z,5.90
2019-02-19T03:10:03.669Z,7.30
2019-02-19T03:12:31.236Z,4.80
2019-02-19T03:14:58.803Z,16.33
2019-02-19T03:17:26.369Z,7.07
2019-02-19T03:19:53.934Z,6.20
2019-02-19T03:22:21.518Z,16.90
2019-02-19T03:24:49.204Z,24.70
2019-02-19T03:27:16.778Z,6.40
2019-02-19T03:29:44.344Z,5.87
2019-02-19T03:32:11.916Z,5.47
2019-02-19T03:34:40.251Z,6.60
2019-02-19T03:37:07.821Z,8.00
2019-02-19T03:39:35.469Z,7.47
2019-02-19T03:42:03.037Z,6.63
2019-02-19T03:44:30.590Z,6.07
2019-02-19T03:46:58.160Z,8.03
2019-02-19T03:49:27.654Z,5.70
2019-02-19T03:51:55.233Z,6.50
2019-02-19T03:54:23.734Z,6.43
2019-02-19T03:56:51.305Z,6.30
2019-02-19T03:59:18.868Z,7.13
2019-02-19T04:01:46.441Z,6.30
2019-02-19T04:04:14.000Z,6.27
2019-02-19T04:06:41.564Z,6.40
2019-02-19T04:09:09.124Z,7.10
2019-02-19T04:11:36.692Z,6.03
2019-02-19T04:14:05.199Z,6.50
2019-02-19T04:16:32.778Z,7.10
2019-02-19T04:19:00.347Z,8.50
2019-02-19T04:21:28.841Z,7.43
2019-02-19T04:23:56.409Z,6.67
2019-02-19T04:26:23.985Z,6.57
2019-02-19T04:28:51.554Z,7.63
2019-02-19T04:31:21.050Z,7.53
2019-02-19T04:33:48.617Z,8.73
2019-02-19T04:36:16.184Z,6.60
2019-02-19T04:38:43.746Z,5.60
2019-02-19T04:41:13.246Z,5.97
2019-02-19T04:43:40.816Z,7.20
2019-02-19T04:46:08.384Z,6.40
2019-02-19T04:48:35.945Z,5.83
2019-02-19T04:51:03.634Z,6.60
2019-02-19T04:53:31.211Z,5.50
2019-02-19T04:55:58.779Z,7.00
2019-02-19T04:58:27.108Z,6.00
2019-02-19T05:00:54.688Z,7.23
2019-02-19T05:03:22.265Z,6.20
2019-02-19T05:05:49.848Z,6.50
2019-02-19T05:08:17.421Z,5.67
2019-02-19T05:10:47.664Z,5.55
2019-02-19T05:13:17.158Z,5.90
2019-02-19T05:15:44.735Z,6.07
2019-02-19T05:18:12.306Z,6.80
2019-02-19T05:20:39.868Z,6.43
2019-02-19T05:23:07.564Z,6.47
2019-02-19T05:25:35.987Z,7.50
2019-02-19T05:28:03.550Z,9.60
2019-02-19T05:30:31.208Z,6.00
2019-02-19T05:32:58.783Z,5.97
2019-02-19T05:35:26.348Z,7.50
2019-02-19T05:37:53.912Z,6.40
2019-02-19T05:40:21.476Z,5.60
2019-02-19T05:42:49.040Z,6.00
2019-02-19T05:45:18.523Z,4.63
2019-02-19T05:47:46.088Z,6.10
2019-02-19T05:50:13.647Z,6.20
2019-02-19T05:52:42.181Z,6.00
2019-02-19T05:55:09.753Z,5.93
2019-02-19T05:57:37.320Z,6.20
2019-02-19T06:00:05.272Z,7.23
2019-02-19T06:02:32.835Z,7.10
2019-02-19T06:05:00.409Z,8.17
2019-02-19T06:07:27.980Z,5.80
2019-02-19T06:09:55.546Z,5.43
2019-02-19T06:12:23.129Z,7.20
2019-02-19T06:14:50.697Z,7.20
2019-02-19T06:17:18.266Z,5.80
2019-02-19T06:19:45.829Z,6.40
2019-02-19T06:22:13.396Z,6.03
2019-02-19T06:24:40.956Z,5.97
2019-02-19T06:27:08.541Z,7.20
2019-02-19T06:29:36.109Z,5.90
2019-02-19T06:32:03.676Z,5.80
2019-02-19T06:34:31.248Z,6.07
2019-02-19T06:36:58.815Z,6.80
2019-02-19T06:39:26.390Z,5.80
2019-02-19T06:41:54.160Z,6.03
2019-02-19T06:44:21.715Z,5.20
2019-02-19T06:46:49.287Z,8.73
2019-02-19T06:49:16.852Z,5.70
2019-02-19T06:51:44.440Z,5.20
2019-02-19T06:54:12.008Z,6.03
2019-02-19T06:56:39.579Z,5.67
2019-02-19T06:59:07.141Z,6.30
2019-02-19T07:01:35.684Z,7.73
2019-02-19T07:04:03.383Z,5.90
2019-02-19T07:06:30.953Z,6.67
2019-02-19T07:08:58.517Z,7.23
2019-02-19T07:11:26.083Z,6.77
2019-02-19T07:13:53.644Z,7.50
2019-02-19T07:16:21.213Z,7.20
2019-02-19T07:18:48.787Z,6.20
2019-02-19T07:21:16.375Z,7.03
2019-02-19T07:23:43.959Z,7.33
2019-02-19T07:26:11.528Z,7.70
2019-02-19T07:28:39.278Z,7.70
2019-02-19T07:31:06.846Z,7.60
2019-02-19T07:33:34.411Z,9.00
2019-02-19T07:36:02.960Z,6.40
2019-02-19T07:38:30.525Z,7.10
2019-02-19T07:40:58.088Z,7.50
2019-02-19T07:43:25.660Z,5.63
2019-02-19T07:45:54.167Z,5.70
2019-02-19T07:48:21.732Z,7.80
2019-02-19T07:50:49.300Z,8.10
2019-02-19T07:53:16.868Z,7.17
2019-02-19T07:55:45.752Z,6.10
2019-02-19T07:58:13.312Z,10.63
2019-02-19T08:00:42.629Z,11.60
2019-02-19T08:03:11.296Z,6.10
2019-02-19T08:05:39.636Z,6.73
2019-02-19T08:08:07.210Z,6.03
2019-02-19T08:10:36.716Z,5.80
2019-02-19T08:13:05.964Z,7.23
2019-02-19T08:15:33.530Z,6.60
2019-02-19T08:18:02.100Z,7.50
2019-02-19T08:20:29.660Z,8.20
2019-02-19T08:22:57.227Z,6.20
2019-02-19T08:25:24.788Z,7.07
2019-02-19T08:27:52.356Z,6.37
2019-02-19T08:30:19.921Z,6.27
2019-02-19T08:32:47.489Z,6.03
2019-02-19T08:35:15.061Z,6.70
2019-02-19T08:37:42.635Z,6.10
2019-02-19T08:40:10.216Z,5.67
2019-02-19T08:42:37.884Z,5.20
2019-02-19T08:45:05.451Z,6.33
2019-02-19T08:47:40.409Z,5.63
2019-02-19T08:50:00.665Z,5.77
2019-02-19T08:52:28.231Z,6.57
2019-02-19T08:54:55.799Z,6.13
2019-02-19T08:57:25.302Z,5.53
2019-02-19T08:59:52.890Z,6.80
2019-02-19T09:02:21.229Z,6.70
2019-02-19T09:04:48.800Z,6.53
2019-02-19T09:07:16.376Z,6.33
2019-02-19T09:09:43.940Z,5.97
2019-02-19T09:12:12.320Z,6.83
2019-02-19T09:14:40.656Z,6.80
2019-02-19T09:17:08.232Z,10.70
2019-02-19T09:19:35.811Z,11.93
2019-02-19T09:22:03.399Z,12.00
2019-02-19T09:24:30.970Z,9.00
2019-02-19T09:26:58.539Z,8.03
2019-02-19T09:29:26.112Z,7.83
2019-02-19T09:31:53.693Z,6.40
2019-02-19T09:34:22.189Z,6.00
2019-02-19T09:36:49.767Z,6.90
2019-02-19T09:39:17.431Z,6.30
2019-02-19T09:41:45.001Z,5.77
2019-02-19T09:44:12.568Z,6.30
2019-02-19T09:46:40.141Z,6.47
2019-02-19T09:49:07.707Z,7.30
2019-02-19T09:51:36.784Z,7.00
2019-02-19T09:54:04.356Z,7.63
2019-02-19T09:56:31.929Z,7.90
2019-02-19T09:59:01.416Z,7.20
2019-02-19T10:01:28.991Z,6.57
2019-02-19T10:03:56.568Z,7.20
2019-02-19T10:06:24.153Z,6.87
2019-02-19T10:08:51.721Z,6.10
2019-02-19T10:11:19.289Z,6.07
2019-02-19T10:13:46.861Z,7.00
2019-02-19T10:16:14.441Z,6.70
2019-02-19T10:18:42.772Z,6.23
2019-02-19T10:21:10.344Z,6.23
2019-02-19T10:23:38.676Z,6.43
2019-02-19T10:26:06.360Z,6.67
2019-02-19T10:28:33.947Z,6.27
2019-02-19T10:31:01.525Z,5.37
2019-02-19T10:33:30.038Z,6.43
2019-02-19T10:35:57.716Z,6.37
2019-02-19T10:38:25.286Z,5.70
2019-02-19T10:40:54.764Z,6.00
2019-02-19T10:43:23.563Z,6.10
2019-02-19T10:45:50.889Z,5.17
2019-02-19T10:48:19.317Z,6.20
2019-02-19T10:50:46.078Z,5.80
2019-02-19T10:53:13.648Z,7.20
2019-02-19T10:55:41.232Z,6.70
2019-02-19T10:58:08.810Z,8.50
2019-02-19T11:00:36.380Z,6.83
2019-02-19T11:03:06.151Z,5.40
2019-02-19T11:05:35.644Z,6.93
2019-02-19T11:08:03.223Z,6.43
2019-02-19T11:10:31.720Z,5.60
2019-02-19T11:12:59.297Z,6.40
2019-02-19T11:15:26.872Z,7.53
2019-02-19T11:17:55.210Z,6.47
2019-02-19T11:20:22.776Z,6.23
2019-02-19T11:22:50.351Z,6.13
2019-02-19T11:25:17.920Z,5.30
2019-02-19T11:27:46.260Z,6.67
2019-02-19T11:30:17.443Z,6.15
2019-02-19T11:32:46.052Z,6.00
2019-02-19T11:35:13.629Z,5.70
2019-02-19T11:37:41.203Z,5.80
2019-02-19T11:40:08.776Z,5.20
2019-02-19T11:42:36.352Z,5.37
2019-02-19T11:45:03.925Z,5.20
2019-02-19T11:47:32.424Z,5.10
2019-02-19T11:49:59.991Z,4.70
2019-02-19T11:52:29.483Z,5.30
2019-02-19T11:54:57.248Z,5.97
2019-02-19T11:57:24.821Z,6.60
2019-02-19T11:59:52.394Z,5.33
2019-02-19T12:02:19.964Z,5.80
2019-02-19T12:04:47.533Z,6.10
2019-02-19T12:07:15.105Z,5.10
2019-02-19T12:09:43.453Z,5.87
2019-02-19T12:12:11.027Z,5.60
2019-02-19T12:14:38.608Z,5.90
2019-02-19T12:17:06.182Z,6.40
2019-02-19T12:19:33.760Z,6.80
2019-02-19T12:22:01.332Z,6.10
2019-02-19T12:24:28.902Z,6.00
2019-02-19T12:26:56.471Z,5.90
2019-02-19T12:29:24.036Z,6.43
2019-02-19T12:31:52.368Z,6.90
2019-02-19T12:34:19.935Z,5.30
2019-02-19T12:36:47.510Z,5.57
2019-02-19T12:39:15.853Z,5.57
2019-02-19T12:41:43.421Z,6.53
2019-02-19T12:44:10.985Z,6.17
2019-02-19T12:46:38.560Z,7.53
2019-02-19T12:49:06.128Z,6.83
2019-02-19T12:51:34.481Z,5.77
2019-02-19T12:54:02.057Z,5.93
2019-02-19T12:56:29.632Z,9.33
2019-02-19T12:58:57.208Z,27.00
2019-02-19T13:01:24.781Z,10.37
2019-02-19T13:03:52.352Z,6.80
2019-02-19T13:06:19.941Z,6.80
2019-02-19T13:08:47.508Z,6.90
2019-02-19T13:11:15.085Z,6.63
2019-02-19T13:13:42.665Z,7.00
2019-02-19T13:16:10.243Z,7.10
2019-02-19T13:18:38.735Z,7.47
2019-02-19T13:21:06.317Z,7.40
2019-02-19T13:23:33.884Z,7.40
2019-02-19T13:26:02.212Z,7.10
2019-02-19T13:28:29.776Z,7.57
2019-02-19T13:30:57.351Z,15.77
2019-02-19T13:33:26.840Z,19.30
2019-02-19T13:35:54.572Z,10.57
2019-02-19T13:38:22.140Z,11.50
2019-02-19T13:40:49.708Z,8.13
2019-02-19T13:43:19.211Z,8.23
2019-02-19T13:45:46.783Z,7.93
2019-02-19T13:48:14.360Z,7.47
2019-02-19T13:50:41.938Z,7.47
2019-02-19T13:53:12.151Z,6.83
2019-02-19T13:55:39.721Z,7.17
2019-02-19T13:58:07.300Z,7.83
2019-02-19T14:00:39.325Z,7.53
2019-02-19T14:03:06.901Z,7.67
2019-02-19T14:05:34.469Z,7.77
2019-02-19T14:08:02.054Z,7.33
2019-02-19T14:10:29.634Z,7.80
2019-02-19T14:12:57.452Z,9.10
2019-02-19T14:15:30.508Z,6.93
2019-02-19T14:17:58.071Z,8.30
2019-02-19T14:20:31.429Z,7.50
2019-02-19T14:23:01.945Z,9.10
2019-02-19T14:28:25.648Z,7.30
2019-02-19T14:33:52.031Z,8.30
2019-02-19T14:36:28.787Z,7.90
2019-02-19T14:39:14.124Z,8.73
2019-02-19T14:44:56.805Z,10.67
2019-02-19T14:47:43.168Z,12.03
2019-02-19T14:50:10.742Z,9.53
2019-02-19T14:52:44.800Z,10.23
2019-02-19T14:55:14.220Z,9.53
2019-02-19T14:58:01.566Z,9.30
2019-02-19T15:03:38.429Z,9.93
2019-02-19T15:09:14.187Z,9.70
2019-02-19T15:14:39.937Z,9.40
2019-02-19T15:17:27.321Z,9.93
2019-02-19T15:20:00.452Z,8.90
2019-02-19T15:22:42.909Z,9.33
2019-02-19T15:25:26.109Z,8.40
2019-02-19T15:27:55.205Z,9.40
2019-02-19T15:30:34.484Z,9.60
2019-02-19T15:33:05.783Z,8.50
2019-02-19T15:35:35.181Z,9.47
2019-02-19T15:38:21.568Z,9.33
2019-02-19T15:40:49.241Z,9.30
2019-02-19T15:43:23.166Z,10.00
2019-02-19T15:45:51.660Z,9.20
2019-02-19T15:48:25.883Z,9.40
2019-02-19T15:50:55.821Z,9.87
2019-02-19T15:53:28.081Z,9.63
2019-02-19T15:56:01.377Z,10.83
2019-02-19T15:58:39.807Z,9.30
2019-02-19T16:01:13.920Z,8.70
2019-02-19T16:03:42.137Z,11.00
2019-02-19T16:09:07.069Z,10.63
2019-02-19T16:11:39.152Z,10.13
2019-02-19T16:14:16.609Z,12.90
2019-02-19T16:16:44.633Z,13.00
2019-02-19T16:19:14.123Z,10.70
2019-02-19T16:21:58.448Z,11.87
2019-02-19T16:24:26.832Z,11.20
2019-02-19T16:27:05.081Z,11.63
2019-02-19T16:29:53.193Z,11.77
2019-02-19T16:32:23.648Z,10.67
2019-02-19T16:34:54.851Z,14.57
2019-02-19T16:37:22.428Z,13.77
2019-02-19T16:39:50.927Z,12.13
2019-02-19T16:42:24.192Z,11.60
2019-02-19T16:44:55.591Z,10.87
2019-02-19T16:47:28.876Z,12.17
2019-02-19T16:50:17.256Z,12.43
2019-02-19T16:52:44.836Z,12.90
2019-02-19T16:55:12.795Z,14.48
2019-02-19T16:57:43.892Z,13.70
2019-02-19T17:00:12.380Z,14.50
2019-02-19T17:02:55.720Z,13.97
2019-02-19T17:05:27.064Z,12.33
2019-02-19T17:07:57.338Z,13.20
2019-02-19T17:10:25.864Z,12.63
2019-02-19T17:12:55.361Z,13.07
2019-02-19T17:15:25.913Z,12.20
2019-02-19T17:17:58.968Z,13.07
2019-02-19T17:20:29.496Z,12.20
2019-02-19T17:22:56.683Z,13.07
2019-02-19T17:25:27.672Z,12.23
2019-02-19T17:27:55.248Z,12.07
2019-02-19T17:30:24.592Z,11.57
2019-02-19T17:32:57.856Z,13.37
2019-02-19T17:35:31.120Z,13.40
2019-02-19T17:38:14.886Z,14.33
2019-02-19T17:40:42.140Z,16.67
2019-02-19T17:43:11.366Z,14.60
2019-02-19T17:45:38.941Z,13.57
2019-02-19T17:48:11.140Z,13.00
2019-02-19T17:50:38.984Z,13.70
2019-02-19T17:53:09.927Z,12.13
2019-02-19T17:58:34.479Z,13.68
2019-02-19T18:01:05.781Z,13.20
2019-02-19T18:03:47.201Z,15.70
2019-02-19T18:06:18.390Z,15.47
2019-02-19T18:08:49.537Z,14.70
2019-02-19T18:11:21.556Z,15.30
2019-02-19T18:13:49.131Z,14.90
2019-02-19T18:16:20.408Z,14.47
2019-02-19T18:18:49.409Z,14.50
2019-02-19T18:21:16.997Z,14.30
2019-02-19T18:23:44.577Z,15.10
2019-02-19T18:26:12.918Z,16.13
2019-02-19T18:28:40.502Z,14.93
2019-02-19T18:31:08.113Z,14.90
2019-02-19T18:33:35.704Z,14.40
2019-02-19T18:36:03.276Z,14.70
2019-02-19T18:38:31.736Z,14.93
2019-02-19T18:40:58.471Z,14.60
2019-02-19T18:43:26.038Z,14.57
2019-02-19T18:45:53.629Z,17.30
2019-02-19T18:48:21.196Z,16.83
2019-02-19T18:50:56.428Z,17.10
2019-02-19T18:53:17.330Z,16.70
2019-02-19T18:55:44.927Z,14.93
2019-02-19T18:58:13.432Z,15.70
2019-02-19T19:00:41.008Z,16.27
2019-02-19T19:03:11.268Z,15.83
2019-02-19T19:05:38.850Z,16.40
2019-02-19T19:08:06.435Z,16.57
2019-02-19T19:10:34.772Z,15.57
2019-02-19T19:13:02.376Z,16.53
2019-02-19T19:15:29.949Z,16.70
2019-02-19T19:17:57.513Z,17.03
2019-02-19T19:20:25.089Z,17.00
2019-02-19T19:22:52.664Z,18.90
2019-02-19T19:25:20.248Z,18.03
2019-02-19T19:27:47.846Z,18.67
2019-02-19T19:30:16.372Z,17.30
2019-02-19T19:32:43.940Z,16.87
2019-02-19T19:35:12.171Z,16.08
2019-02-19T19:37:39.740Z,15.00
2019-02-19T19:40:08.339Z,14.33
2019-02-19T19:42:35.910Z,14.70
2019-02-19T19:45:03.489Z,14.07
2019-02-19T19:47:31.827Z,15.00
2019-02-19T19:49:59.396Z,13.83
2019-02-19T19:52:26.974Z,15.10
2019-02-19T19:54:54.554Z,14.03
2019-02-19T19:57:22.133Z,13.83
2019-02-19T19:59:49.961Z,14.67
2019-02-19T20:02:19.498Z,14.47
2019-02-19T20:04:45.151Z,13.83
2019-02-19T20:07:12.719Z,14.00
2019-02-19T20:09:40.301Z,16.47
2019-02-19T20:12:08.300Z,14.27
2019-02-19T20:14:35.917Z,13.43
2019-02-19T20:17:03.505Z,13.30
2019-02-19T20:19:32.994Z,12.17
2019-02-19T20:22:00.565Z,12.90
2019-02-19T20:24:28.228Z,12.83
2019-02-19T20:26:55.792Z,13.40
2019-02-19T20:29:23.404Z,13.80
2019-02-19T20:31:50.983Z,14.27
2019-02-19T20:34:18.556Z,13.43
2019-02-19T20:36:46.128Z,13.83
2019-02-19T20:39:13.706Z,14.63
2019-02-19T20:41:41.275Z,14.20
2019-02-19T20:44:08.846Z,15.00
2019-02-19T20:46:36.421Z,14.70
2019-02-19T20:49:03.992Z,14.87
2019-02-19T20:51:36.397Z,15.20
2019-02-19T20:53:59.223Z,15.50
2019-02-19T20:56:28.720Z,14.10
2019-02-19T20:58:56.293Z,13.87
2019-02-19T21:01:25.786Z,15.27
2019-02-19T21:03:53.350Z,14.80
2019-02-19T21:06:20.923Z,13.80
2019-02-19T21:08:48.488Z,14.90
2019-02-19T21:11:16.053Z,15.03
2019-02-19T21:13:43.629Z,14.73
2019-02-19T21:16:11.196Z,15.20
2019-02-19T21:18:38.764Z,13.80
2019-02-19T21:21:07.097Z,15.30
2019-02-19T21:23:34.661Z,14.37
2019-02-19T21:26:02.260Z,15.13
2019-02-19T21:28:29.828Z,15.50
2019-02-19T21:30:58.384Z,15.93
2019-02-19T21:33:25.949Z,14.80
2019-02-19T21:35:57.848Z,15.40
2019-02-19T21:38:24.247Z,15.50
2019-02-19T21:40:53.540Z,15.20
2019-02-19T21:43:22.868Z,15.50
2019-02-19T21:45:53.692Z,15.67
2019-02-19T21:48:22.488Z,15.60
2019-02-19T21:50:50.060Z,16.10
2019-02-19T21:53:18.448Z,14.43
2019-02-19T21:55:48.008Z,15.53
2019-02-19T21:58:16.457Z,15.20
2019-02-19T22:00:46.090Z,15.67
2019-02-19T22:03:14.491Z,17.00
2019-02-19T22:05:43.481Z,16.10
2019-02-19T22:08:12.018Z,15.37
2019-02-19T22:10:40.129Z,15.90
2019-02-19T22:13:08.170Z,16.33
2019-02-19T22:15:36.096Z,16.80
2019-02-19T22:18:04.137Z,15.83
2019-02-19T22:20:33.900Z,15.40
2019-02-19T22:23:02.808Z,15.87
2019-02-19T22:25:30.918Z,15.50
2019-02-19T22:27:59.673Z,16.33
2019-02-19T22:30:27.721Z,16.73
2019-02-19T22:32:57.448Z,14.60
2019-02-19T22:35:25.724Z,15.53
2019-02-19T22:37:53.751Z,14.90
2019-02-19T22:40:23.280Z,16.17
2019-02-19T22:42:52.184Z,15.87
2019-02-19T22:45:20.732Z,15.73
2019-02-19T22:47:53.506Z,16.07
2019-02-19T22:50:16.132Z,16.10
2019-02-19T22:52:44.172Z,15.63
2019-02-19T22:55:19.240Z,14.33
2019-02-19T22:57:47.375Z,15.60
2019-02-19T23:00:18.209Z,15.23
2019-02-19T23:02:46.261Z,16.43
2019-02-19T23:05:14.076Z,16.13
2019-02-19T23:07:42.832Z,15.27
2019-02-19T23:10:11.532Z,17.50
2019-02-19T23:12:39.537Z,15.27
2019-02-19T23:15:07.241Z,15.47
2019-02-19T23:17:35.435Z,15.77
2019-02-19T23:20:03.006Z,16.80
2019-02-19T23:22:30.581Z,17.00
2019-02-19T23:25:00.204Z,15.50
2019-02-19T23:27:27.682Z,16.30
2019-02-19T23:29:55.251Z,16.30
2019-02-19T23:32:22.828Z,16.40
2019-02-19T23:34:50.398Z,17.33
2019-02-19T23:37:18.910Z,16.60
2019-02-19T23:39:48.212Z,16.30
2019-02-19T23:42:16.544Z,17.33
2019-02-19T23:44:44.116Z,17.30
2019-02-19T23:47:11.688Z,16.33
2019-02-19T23:49:39.255Z,17.40
2019-02-19T23:52:07.587Z,15.80
2019-02-19T23:54:35.154Z,16.57
2019-02-19T23:57:02.734Z,17.97
2019-02-19T23:59:30.301Z,17.83
